createdAt,value
2023-12-14T00:01:41.808Z,116.05
2023-12-14T00:04:13.886Z,102.43
2023-12-14T00:06:45.635Z,114.60
2023-12-14T00:09:17.389Z,144.02
2023-12-14T00:11:49.157Z,98.40
2023-12-14T00:14:20.984Z,107.50
2023-12-14T00:16:52.862Z,122.95
2023-12-14T00:19:25.246Z,99.35
2023-12-14T00:21:57.032Z,141.07
2023-12-14T00:24:28.801Z,108.53
2023-12-14T00:27:00.557Z,115.50
2023-12-14T00:29:32.443Z,123.75
2023-12-14T00:32:04.537Z,112.90
2023-12-14T00:34:36.801Z,114.72
2023-12-14T00:37:08.589Z,115.70
2023-12-14T00:39:40.350Z,139.57
2023-12-14T00:42:12.099Z,122.13
2023-12-14T00:44:43.858Z,130.02
2023-12-14T00:47:15.701Z,128.40
2023-12-14T00:49:47.542Z,131.63
2023-12-14T00:52:19.330Z,152.82
2023-12-14T00:54:51.162Z,126.15
2023-12-14T00:57:22.984Z,127.97
2023-12-14T00:59:55.499Z,132.30
2023-12-14T01:02:27.315Z,128.57
2023-12-14T01:05:00.267Z,154.95
2023-12-14T01:07:32.250Z,140.57
2023-12-14T01:10:05.045Z,144.70
2023-12-14T01:12:37.085Z,146.77
2023-12-14T01:15:09.497Z,132.40
2023-12-14T01:17:41.291Z,132.38
2023-12-14T01:20:13.595Z,134.63
2023-12-14T01:22:45.490Z,142.32
2023-12-14T01:25:17.614Z,127.63
2023-12-14T01:27:49.522Z,155.23
2023-12-14T01:30:21.322Z,133.60
2023-12-14T01:32:53.116Z,124.13
2023-12-14T01:35:25.308Z,149.68
2023-12-14T01:37:57.101Z,124.72
2023-12-14T01:40:28.930Z,124.47
2023-12-14T01:43:11.938Z,137.20
2023-12-14T01:45:43.829Z,175.23
2023-12-14T01:48:15.701Z,137.70
2023-12-14T01:50:47.499Z,150.05
2023-12-14T01:53:19.433Z,165.82
2023-12-14T01:55:51.430Z,118.28
2023-12-14T01:58:23.257Z,133.88
2023-12-14T02:01:00.261Z,129.52
2023-12-14T02:03:32.012Z,110.18
2023-12-14T02:06:04.439Z,111.97
2023-12-14T02:08:36.216Z,116.75
2023-12-14T02:11:08.379Z,144.55
2023-12-14T02:13:40.263Z,144.27
2023-12-14T02:16:12.116Z,115.20
2023-12-14T02:18:43.945Z,112.13
2023-12-14T02:21:16.082Z,119.55
2023-12-14T02:23:48.044Z,91.32
2023-12-14T02:26:19.805Z,113.72
2023-12-14T02:28:51.642Z,98.10
2023-12-14T02:31:24.821Z,94.65
2023-12-14T02:33:56.659Z,98.85
2023-12-14T02:36:28.469Z,86.78
2023-12-14T02:39:00.283Z,96.05
2023-12-14T02:41:32.195Z,103.43
2023-12-14T02:44:03.992Z,103.70
2023-12-14T02:46:35.940Z,101.55
2023-12-14T02:49:08.020Z,88.57
2023-12-14T02:51:39.861Z,85.47
2023-12-14T02:54:11.611Z,90.63
2023-12-14T02:56:43.382Z,97.82
2023-12-14T02:59:15.186Z,89.78
2023-12-14T03:01:46.983Z,80.38
2023-12-14T03:04:18.791Z,73.75
2023-12-14T03:06:50.613Z,83.32
2023-12-14T03:09:22.361Z,80.18
2023-12-14T03:11:54.136Z,79.57
2023-12-14T03:14:26.017Z,78.75
2023-12-14T03:16:57.804Z,91.50
2023-12-14T03:19:30.051Z,96.03
2023-12-14T03:22:01.812Z,90.45
2023-12-14T03:24:33.859Z,71.13
2023-12-14T03:27:05.965Z,84.38
2023-12-14T03:29:37.833Z,82.95
2023-12-14T03:32:09.639Z,81.85
2023-12-14T03:34:42.230Z,63.65
2023-12-14T03:37:14.104Z,71.68
2023-12-14T03:39:45.853Z,76.15
2023-12-14T03:42:17.612Z,71.55
2023-12-14T03:44:49.375Z,75.20
2023-12-14T03:47:21.135Z,82.93
2023-12-14T03:49:53.024Z,85.72
2023-12-14T03:52:24.853Z,74.60
2023-12-14T03:54:56.628Z,81.13
2023-12-14T03:57:28.474Z,59.67
2023-12-14T04:00:00.228Z,56.72
2023-12-14T04:02:32.203Z,68.82
2023-12-14T04:05:04.799Z,70.25
2023-12-14T04:07:42.092Z,67.95
2023-12-14T04:10:14.579Z,62.83
2023-12-14T04:12:46.368Z,61.78
2023-12-14T04:15:18.209Z,77.95
2023-12-14T04:17:50.094Z,72.68
2023-12-14T04:20:21.949Z,59.55
2023-12-14T04:22:53.756Z,73.05
2023-12-14T04:25:25.559Z,58.50
2023-12-14T04:27:57.366Z,63.10
2023-12-14T04:30:29.139Z,61.25
2023-12-14T04:33:00.983Z,63.60
2023-12-14T04:35:37.808Z,62.95
2023-12-14T04:38:09.904Z,64.45
2023-12-14T04:40:43.686Z,75.07
2023-12-14T04:43:16.491Z,74.07
2023-12-14T04:45:48.263Z,65.63
2023-12-14T04:48:20.072Z,56.88
2023-12-14T04:50:51.884Z,61.95
2023-12-14T04:53:23.770Z,67.38
2023-12-14T04:55:55.629Z,62.20
2023-12-14T04:58:27.495Z,66.72
2023-12-14T05:00:59.282Z,75.50
2023-12-14T05:03:31.140Z,65.78
2023-12-14T05:06:03.003Z,73.90
2023-12-14T05:08:35.167Z,54.28
2023-12-14T05:11:07.141Z,60.70
2023-12-14T05:13:38.958Z,58.60
2023-12-14T05:16:16.876Z,60.22
2023-12-14T05:18:48.702Z,62.67
2023-12-14T05:21:20.813Z,72.50
2023-12-14T05:23:52.631Z,82.10
2023-12-14T05:26:24.432Z,86.88
2023-12-14T05:28:56.248Z,81.25
2023-12-14T05:31:28.020Z,88.55
2023-12-14T05:34:00.252Z,112.05
2023-12-14T05:36:32.111Z,104.55
2023-12-14T05:39:04.947Z,70.50
2023-12-14T05:41:41.860Z,83.00
2023-12-14T05:44:14.694Z,74.18
2023-12-14T05:46:46.670Z,107.63
2023-12-14T05:49:18.486Z,78.57
2023-12-14T05:51:50.265Z,69.10
2023-12-14T05:54:22.077Z,81.13
2023-12-14T05:56:53.843Z,98.25
2023-12-14T05:59:25.880Z,95.70
2023-12-14T06:02:01.392Z,120.68
2023-12-14T06:04:33.359Z,120.38
2023-12-14T06:07:05.286Z,110.35
2023-12-14T06:09:37.166Z,83.90
2023-12-14T06:12:08.946Z,96.63
2023-12-14T06:14:40.721Z,79.55
2023-12-14T06:17:12.518Z,89.28
2023-12-14T06:19:44.355Z,85.03
2023-12-14T06:22:16.181Z,75.45
2023-12-14T06:24:48.024Z,104.82
2023-12-14T06:27:19.848Z,84.30
2023-12-14T06:29:51.623Z,97.90
2023-12-14T06:32:23.467Z,112.15
2023-12-14T06:34:55.427Z,97.82
2023-12-14T06:37:27.217Z,88.57
2023-12-14T06:39:58.995Z,95.65
2023-12-14T06:42:31.635Z,84.13
2023-12-14T06:45:04.138Z,96.05
2023-12-14T06:47:36.024Z,86.65
2023-12-14T06:50:07.976Z,176.27
2023-12-14T06:52:39.842Z,156.63
2023-12-14T06:55:12.213Z,99.90
2023-12-14T06:57:45.368Z,91.03
2023-12-14T07:00:17.409Z,78.40
2023-12-14T07:02:49.213Z,89.25
2023-12-14T07:05:21.324Z,81.18
2023-12-14T07:07:53.266Z,82.32
2023-12-14T07:10:25.515Z,69.28
2023-12-14T07:12:57.313Z,80.95
2023-12-14T07:15:29.114Z,71.13
2023-12-14T07:18:01.124Z,69.10
2023-12-14T07:20:33.272Z,71.25
2023-12-14T07:23:05.072Z,64.18
2023-12-14T07:25:36.920Z,70.25
2023-12-14T07:28:08.695Z,71.40
2023-12-14T07:30:40.538Z,62.03
2023-12-14T07:33:12.581Z,54.35
2023-12-14T07:35:44.539Z,60.53
2023-12-14T07:38:16.511Z,66.35
2023-12-14T07:40:48.469Z,63.90
2023-12-14T07:43:20.303Z,64.00
2023-12-14T07:45:52.085Z,74.78
2023-12-14T07:48:23.975Z,70.57
2023-12-14T07:50:55.844Z,64.25
2023-12-14T07:53:28.139Z,63.03
2023-12-14T07:55:59.963Z,65.78
2023-12-14T07:58:31.800Z,70.78
2023-12-14T08:01:03.873Z,60.20
2023-12-14T08:03:36.638Z,60.30
2023-12-14T08:06:08.502Z,70.55
2023-12-14T08:08:40.306Z,83.97
2023-12-14T08:11:12.140Z,69.85
2023-12-14T08:13:44.099Z,76.78
2023-12-14T08:16:17.028Z,71.68
2023-12-14T08:18:49.812Z,59.22
2023-12-14T08:21:21.676Z,62.67
2023-12-14T08:23:53.839Z,57.72
2023-12-14T08:26:25.637Z,54.53
2023-12-14T08:28:57.450Z,60.63
2023-12-14T08:31:29.253Z,57.67
2023-12-14T08:34:01.140Z,63.40
2023-12-14T08:36:33.050Z,76.47
2023-12-14T08:39:04.808Z,59.42
2023-12-14T08:41:36.613Z,56.63
2023-12-14T08:44:09.215Z,75.93
2023-12-14T08:46:42.860Z,65.13
2023-12-14T08:49:15.329Z,65.10
2023-12-14T08:51:47.132Z,74.28
2023-12-14T08:54:18.936Z,68.35
2023-12-14T08:56:50.772Z,68.93
2023-12-14T08:59:22.581Z,55.53
2023-12-14T09:01:54.594Z,56.50
2023-12-14T09:04:26.479Z,56.85
2023-12-14T09:06:58.228Z,53.00
2023-12-14T09:09:29.982Z,50.22
2023-12-14T09:12:01.799Z,56.53
2023-12-14T09:14:33.554Z,62.10
2023-12-14T09:17:05.384Z,62.28
2023-12-14T09:19:37.223Z,60.42
2023-12-14T09:22:09.037Z,54.10
2023-12-14T09:24:40.894Z,50.25
2023-12-14T09:27:13.165Z,44.95
2023-12-14T09:29:45.086Z,47.08
2023-12-14T09:32:18.640Z,42.60
2023-12-14T09:34:50.535Z,52.65
2023-12-14T09:37:22.300Z,60.70
2023-12-14T09:39:54.100Z,45.95
2023-12-14T09:42:25.901Z,39.65
2023-12-14T09:44:59.017Z,56.53
2023-12-14T09:47:30.871Z,57.90
2023-12-14T09:50:02.873Z,60.17
2023-12-14T09:52:35.177Z,60.90
2023-12-14T09:55:07.171Z,58.58
2023-12-14T09:57:39.093Z,52.50
2023-12-14T10:00:12.415Z,54.50
2023-12-14T10:02:49.377Z,58.90
2023-12-14T10:05:21.302Z,65.25
2023-12-14T10:07:53.756Z,62.50
2023-12-14T10:10:30.424Z,62.88
2023-12-14T10:13:02.255Z,60.65
2023-12-14T10:15:44.190Z,56.25
2023-12-14T10:18:24.411Z,57.90
2023-12-14T10:20:57.248Z,60.80
2023-12-14T10:23:29.471Z,60.17
2023-12-14T10:26:01.349Z,53.92
2023-12-14T10:28:33.691Z,51.03
2023-12-14T10:31:06.733Z,48.40
2023-12-14T10:33:39.623Z,40.83
2023-12-14T10:36:11.610Z,42.40
2023-12-14T10:38:45.388Z,37.80
2023-12-14T10:41:19.252Z,40.90
2023-12-14T10:44:12.327Z,39.70
2023-12-14T10:46:49.968Z,41.75
2023-12-14T10:49:21.820Z,34.28
2023-12-14T10:51:58.229Z,44.05
2023-12-14T10:54:33.164Z,44.40
2023-12-14T10:57:07.287Z,42.10
2023-12-14T10:59:39.105Z,41.15
2023-12-14T11:02:11.956Z,37.47
2023-12-14T11:05:07.197Z,36.15
2023-12-14T11:07:49.629Z,38.17
2023-12-14T11:10:29.145Z,47.83
2023-12-14T11:13:01.358Z,46.58
2023-12-14T11:15:36.893Z,59.03
2023-12-14T11:18:11.771Z,58.20
2023-12-14T11:20:46.819Z,58.20
2023-12-14T11:23:25.201Z,43.50
2023-12-14T11:26:08.075Z,42.03
2023-12-14T11:28:44.566Z,42.88
2023-12-14T11:31:17.441Z,36.95
2023-12-14T11:33:49.525Z,51.58
2023-12-14T11:36:21.767Z,48.40
2023-12-14T11:38:56.019Z,50.95
2023-12-14T11:41:30.563Z,54.13
2023-12-14T11:44:02.575Z,59.83
2023-12-14T11:46:34.858Z,55.65
2023-12-14T11:49:06.767Z,62.92
2023-12-14T11:51:39.589Z,49.97
2023-12-14T11:54:11.520Z,47.80
2023-12-14T11:56:50.727Z,46.60
2023-12-14T11:59:22.857Z,44.42
2023-12-14T12:01:56.327Z,42.25
2023-12-14T12:04:29.145Z,42.85
2023-12-14T12:07:05.809Z,45.10
2023-12-14T12:09:45.047Z,43.47
2023-12-14T12:12:16.823Z,44.63
2023-12-14T12:14:50.871Z,45.13
2023-12-14T12:17:23.063Z,43.35
2023-12-14T12:19:55.081Z,42.13
2023-12-14T12:22:26.868Z,46.83
2023-12-14T12:25:08.549Z,48.75
2023-12-14T12:27:48.413Z,48.72
2023-12-14T12:30:20.594Z,59.22
2023-12-14T12:32:52.976Z,52.88
2023-12-14T12:35:25.463Z,42.30
2023-12-14T12:37:57.341Z,49.00
2023-12-14T12:40:31.282Z,42.83
2023-12-14T12:43:03.913Z,45.60
2023-12-14T12:45:36.626Z,43.13
2023-12-14T12:48:12.261Z,50.22
2023-12-14T12:50:44.331Z,53.88
2023-12-14T12:53:16.332Z,47.65
2023-12-14T12:55:48.151Z,50.28
2023-12-14T12:58:19.920Z,43.72
2023-12-14T13:00:51.681Z,44.35
2023-12-14T13:03:23.503Z,39.30
2023-12-14T13:05:55.878Z,45.90
2023-12-14T13:08:27.790Z,41.88
2023-12-14T13:10:59.599Z,43.25
2023-12-14T13:13:32.562Z,41.47
2023-12-14T13:16:04.659Z,52.63
2023-12-14T13:18:36.487Z,58.80
2023-12-14T13:21:08.300Z,57.15
2023-12-14T13:23:40.180Z,46.22
2023-12-14T13:26:11.997Z,52.33
2023-12-14T13:28:46.489Z,48.55
2023-12-14T13:31:18.354Z,58.58
2023-12-14T13:33:51.724Z,56.92
2023-12-14T13:36:23.636Z,51.05
2023-12-14T13:38:55.546Z,46.17
2023-12-14T13:41:27.645Z,54.35
2023-12-14T13:43:59.481Z,45.78
2023-12-14T13:46:31.327Z,44.65
2023-12-14T13:49:03.308Z,61.05
2023-12-14T13:51:35.332Z,83.18
2023-12-14T13:54:07.177Z,93.60
2023-12-14T13:56:39.012Z,62.50
2023-12-14T13:59:10.821Z,161.68
2023-12-14T14:01:42.955Z,91.13
2023-12-14T14:04:15.278Z,68.65
2023-12-14T14:06:47.495Z,55.08
2023-12-14T14:09:19.246Z,88.07
2023-12-14T14:11:52.226Z,77.55
2023-12-14T14:14:26.694Z,80.43
2023-12-14T14:16:58.630Z,98.78
2023-12-14T14:19:30.911Z,123.93
2023-12-14T14:22:02.673Z,125.72
2023-12-14T14:24:34.444Z,101.72
2023-12-14T14:27:06.230Z,113.18
2023-12-14T14:29:38.057Z,79.03
2023-12-14T14:32:10.067Z,80.57
2023-12-14T14:34:42.294Z,84.32
2023-12-14T14:37:14.222Z,72.55
2023-12-14T14:39:45.993Z,93.93
2023-12-14T14:42:17.990Z,92.15
2023-12-14T14:44:49.738Z,94.22
2023-12-14T14:47:23.300Z,144.93
2023-12-14T14:49:58.721Z,68.88
2023-12-14T14:52:30.697Z,61.95
2023-12-14T14:55:02.498Z,63.78
2023-12-14T14:57:34.974Z,57.22
2023-12-14T15:00:08.191Z,65.07
2023-12-14T15:02:40.235Z,55.08
2023-12-14T15:05:12.658Z,55.38
2023-12-14T15:07:44.558Z,73.15
2023-12-14T15:10:16.405Z,76.55
2023-12-14T15:12:48.178Z,69.03
2023-12-14T15:15:20.009Z,68.90
2023-12-14T15:17:51.823Z,70.68
2023-12-14T15:20:23.722Z,67.85
2023-12-14T15:22:55.621Z,56.85
2023-12-14T15:25:28.165Z,63.85
2023-12-14T15:27:59.981Z,87.90
2023-12-14T15:30:31.849Z,118.43
2023-12-14T15:33:05.333Z,65.55
2023-12-14T15:35:38.137Z,73.70
2023-12-14T15:38:09.984Z,84.38
2023-12-14T15:40:42.418Z,79.28
2023-12-14T15:43:15.344Z,82.43
2023-12-14T15:45:47.157Z,88.43
2023-12-14T15:48:19.185Z,122.63
2023-12-14T15:50:51.260Z,131.43
2023-12-14T15:53:23.167Z,126.38
2023-12-14T15:55:54.982Z,82.47
2023-12-14T15:58:27.430Z,101.45
2023-12-14T16:00:59.250Z,84.18
2023-12-14T16:03:31.189Z,91.60
2023-12-14T16:06:03.268Z,74.35
2023-12-14T16:08:35.307Z,76.32
2023-12-14T16:11:07.893Z,90.47
2023-12-14T16:13:40.625Z,76.07
2023-12-14T16:16:12.436Z,88.32
2023-12-14T16:18:44.526Z,110.35
2023-12-14T16:21:16.422Z,134.82
2023-12-14T16:23:48.190Z,174.57
2023-12-14T16:26:19.962Z,204.02
2023-12-14T16:28:51.850Z,145.40
2023-12-14T16:31:23.640Z,121.63
2023-12-14T16:33:55.514Z,154.75
2023-12-14T16:36:27.352Z,131.27
2023-12-14T16:39:00.532Z,105.57
2023-12-14T16:41:32.357Z,106.53
2023-12-14T16:44:05.893Z,107.07
2023-12-14T16:46:37.725Z,132.18
2023-12-14T16:49:09.537Z,124.82
2023-12-14T16:51:41.315Z,86.47
2023-12-14T16:54:13.211Z,102.32
2023-12-14T16:56:44.995Z,93.00
2023-12-14T16:59:16.917Z,96.45
2023-12-14T17:01:48.963Z,90.22
2023-12-14T17:04:20.778Z,104.93
2023-12-14T17:06:53.647Z,97.88
2023-12-14T17:09:28.824Z,104.28
2023-12-14T17:12:00.651Z,80.47
2023-12-14T17:14:32.429Z,66.30
2023-12-14T17:17:04.739Z,83.55
2023-12-14T17:19:36.965Z,78.30
2023-12-14T17:22:08.724Z,88.82
2023-12-14T17:24:40.495Z,79.47
2023-12-14T17:27:12.268Z,75.05
2023-12-14T17:29:44.074Z,78.20
2023-12-14T17:32:15.879Z,81.30
2023-12-14T17:34:47.880Z,77.65
2023-12-14T17:37:21.231Z,95.82
2023-12-14T17:39:53.156Z,75.90
2023-12-14T17:42:24.981Z,71.78
2023-12-14T17:44:56.741Z,66.90
2023-12-14T17:47:28.751Z,69.38
2023-12-14T17:50:01.895Z,69.75
2023-12-14T17:52:33.868Z,72.60
2023-12-14T17:55:06.268Z,79.03
2023-12-14T17:57:40.797Z,72.80
2023-12-14T18:00:13.100Z,86.47
2023-12-14T18:02:44.912Z,90.00
2023-12-14T18:05:16.934Z,90.13
2023-12-14T18:07:50.743Z,100.55
2023-12-14T18:10:22.573Z,88.93
2023-12-14T18:12:57.733Z,81.10
2023-12-14T18:15:29.662Z,110.35
2023-12-14T18:18:01.797Z,88.05
2023-12-14T18:20:34.157Z,86.53
2023-12-14T18:23:07.789Z,100.63
2023-12-14T18:25:39.855Z,92.47
2023-12-14T18:28:11.630Z,72.03
2023-12-14T18:30:43.474Z,92.70
2023-12-14T18:33:15.623Z,87.25
2023-12-14T18:35:47.561Z,80.88
2023-12-14T18:38:19.348Z,81.20
2023-12-14T18:40:51.211Z,79.40
2023-12-14T18:43:22.994Z,68.15
2023-12-14T18:45:54.799Z,89.15
2023-12-14T18:48:26.797Z,63.88
2023-12-14T18:50:58.637Z,54.50
2023-12-14T18:53:30.522Z,64.22
2023-12-14T18:56:02.456Z,50.90
2023-12-14T18:58:34.236Z,46.95
2023-12-14T19:01:06.678Z,36.35
2023-12-14T19:03:40.030Z,37.13
2023-12-14T19:06:12.030Z,36.58
2023-12-14T19:08:44.223Z,30.42
2023-12-14T19:11:20.562Z,39.25
2023-12-14T19:13:53.034Z,46.25
2023-12-14T19:16:31.071Z,51.40
2023-12-14T19:19:04.349Z,54.15
2023-12-14T19:21:36.391Z,49.08
2023-12-14T19:24:08.826Z,45.17
2023-12-14T19:26:43.716Z,44.35
2023-12-14T19:29:16.437Z,43.92
2023-12-14T19:31:48.501Z,39.08
2023-12-14T19:34:20.320Z,43.83
2023-12-14T19:36:52.067Z,41.85
2023-12-14T19:39:24.032Z,59.58
2023-12-14T19:41:55.786Z,40.63
2023-12-14T19:44:27.693Z,44.45
2023-12-14T19:46:59.613Z,49.78
2023-12-14T19:49:31.421Z,55.42
2023-12-14T19:52:03.296Z,46.60
2023-12-14T19:54:37.335Z,66.78
2023-12-14T19:57:10.556Z,61.15
2023-12-14T19:59:43.338Z,54.42
2023-12-14T20:02:15.627Z,54.78
2023-12-14T20:04:47.485Z,63.03
2023-12-14T20:07:20.560Z,58.08
2023-12-14T20:10:00.861Z,65.53
2023-12-14T20:12:35.562Z,60.58
2023-12-14T20:15:08.014Z,57.60
2023-12-14T20:17:40.096Z,61.08
2023-12-14T20:20:12.372Z,66.40
2023-12-14T20:22:44.221Z,65.47
2023-12-14T20:25:16.087Z,69.72
2023-12-14T20:27:47.886Z,94.50
2023-12-14T20:30:20.154Z,113.80
2023-12-14T20:32:51.963Z,67.25
2023-12-14T20:35:23.840Z,73.65
2023-12-14T20:37:55.688Z,100.90
2023-12-14T20:40:29.565Z,90.50
2023-12-14T20:43:04.169Z,63.28
2023-12-14T20:45:35.962Z,55.05
2023-12-14T20:48:07.800Z,61.30
2023-12-14T20:50:39.708Z,100.25
2023-12-14T20:53:11.565Z,54.42
2023-12-14T20:55:43.391Z,56.92
2023-12-14T20:58:15.180Z,47.72
2023-12-14T21:00:47.105Z,51.30
2023-12-14T21:03:18.989Z,49.70
2023-12-14T21:05:50.882Z,61.85
2023-12-14T21:08:22.720Z,52.08
2023-12-14T21:10:54.659Z,64.95
2023-12-14T21:13:26.507Z,49.15
2023-12-14T21:15:58.626Z,58.10
2023-12-14T21:18:30.660Z,54.65
2023-12-14T21:21:03.491Z,37.00
2023-12-14T21:23:36.076Z,41.33
2023-12-14T21:26:13.587Z,39.30
2023-12-14T21:28:45.454Z,32.05
2023-12-14T21:31:17.247Z,45.05
2023-12-14T21:33:49.223Z,48.05
2023-12-14T21:36:21.140Z,50.97
2023-12-14T21:38:52.914Z,43.10
2023-12-14T21:41:24.735Z,32.63
2023-12-14T21:43:56.560Z,39.92
2023-12-14T21:46:28.844Z,31.38
2023-12-14T21:49:10.133Z,30.70
2023-12-14T21:51:49.229Z,37.78
2023-12-14T21:54:23.978Z,37.20
2023-12-14T21:56:55.747Z,28.48
2023-12-14T21:59:27.615Z,42.05
2023-12-14T22:01:59.636Z,42.92
2023-12-14T22:04:31.405Z,41.60
2023-12-14T22:07:03.487Z,56.42
2023-12-14T22:09:35.283Z,35.80
2023-12-14T22:12:07.441Z,30.05
2023-12-14T22:14:39.267Z,50.72
2023-12-14T22:17:11.131Z,40.10
2023-12-14T22:19:43.088Z,36.90
2023-12-14T22:22:14.857Z,47.78
2023-12-14T22:24:46.640Z,34.72
2023-12-14T22:27:18.396Z,36.90
2023-12-14T22:29:50.253Z,36.13
2023-12-14T22:32:22.222Z,37.15
2023-12-14T22:34:54.175Z,28.17
2023-12-14T22:37:26.007Z,34.33
2023-12-14T22:39:57.929Z,32.53
2023-12-14T22:42:29.711Z,33.25
2023-12-14T22:45:01.557Z,29.40
2023-12-14T22:47:33.564Z,28.65
2023-12-14T22:50:06.932Z,26.95
2023-12-14T22:52:38.756Z,29.92
2023-12-14T22:55:13.156Z,27.65
2023-12-14T22:57:45.600Z,27.75
2023-12-14T23:00:23.206Z,30.75
2023-12-14T23:02:55.456Z,31.45
2023-12-14T23:05:27.255Z,30.45
2023-12-14T23:07:59.138Z,31.38
2023-12-14T23:10:30.941Z,32.20
2023-12-14T23:13:02.876Z,30.27
2023-12-14T23:15:34.653Z,26.17
2023-12-14T23:18:06.535Z,28.15
2023-12-14T23:20:38.542Z,33.35
2023-12-14T23:23:10.543Z,27.02
2023-12-14T23:25:42.372Z,27.35
2023-12-14T23:28:14.856Z,26.80
2023-12-14T23:30:46.811Z,25.33
2023-12-14T23:33:19.293Z,25.55
2023-12-14T23:35:51.397Z,25.10
2023-12-14T23:38:23.311Z,24.48
2023-12-14T23:40:55.502Z,25.73
2023-12-14T23:43:27.457Z,21.70
2023-12-14T23:45:59.268Z,24.02
2023-12-14T23:48:31.141Z,23.75
2023-12-14T23:51:03.007Z,20.88
2023-12-14T23:53:34.813Z,19.67
2023-12-14T23:56:07.506Z,22.65
2023-12-14T23:58:39.495Z,18.52
